sensor_id;sensor_type;location;lat;lon;timestamp;temperature;humidity
12164;DHT22;6145;50.192;10.064;2023-06-24T00:02:01;17.60;85.50
12164;DHT22;6145;50.192;10.064;2023-06-24T00:04:28;17.50;85.50
12164;DHT22;6145;50.192;10.064;2023-06-24T00:06:55;17.50;85.40
12164;DHT22;6145;50.192;10.064;2023-06-24T00:09:24;17.50;85.40
12164;DHT22;6145;50.192;10.064;2023-06-24T00:11:53;17.40;85.30
12164;DHT22;6145;50.192;10.064;2023-06-24T00:14:21;17.40;85.30
12164;DHT22;6145;50.192;10.064;2023-06-24T00:16:49;17.40;85.30
12164;DHT22;6145;50.192;10.064;2023-06-24T00:19:18;17.70;85.70
12164;DHT22;6145;50.192;10.064;2023-06-24T00:21:46;17.40;85.60
12164;DHT22;6145;50.192;10.064;2023-06-24T00:24:12;17.40;85.40
12164;DHT22;6145;50.192;10.064;2023-06-24T00:26:39;17.30;85.30
12164;DHT22;6145;50.192;10.064;2023-06-24T00:29:06;17.30;85.40
12164;DHT22;6145;50.192;10.064;2023-06-24T00:31:34;17.50;85.60
12164;DHT22;6145;50.192;10.064;2023-06-24T00:34:01;17.30;85.60
12164;DHT22;6145;50.192;10.064;2023-06-24T00:36:28;17.50;85.70
12164;DHT22;6145;50.192;10.064;2023-06-24T00:38:57;17.20;85.40
12164;DHT22;6145;50.192;10.064;2023-06-24T00:41:29;17.20;85.40
12164;DHT22;6145;50.192;10.064;2023-06-24T00:43:56;17.00;85.10
12164;DHT22;6145;50.192;10.064;2023-06-24T00:46:24;17.10;85.30
12164;DHT22;6145;50.192;10.064;2023-06-24T00:48:52;17.30;85.70
12164;DHT22;6145;50.192;10.064;2023-06-24T00:51:20;17.00;85.30
12164;DHT22;6145;50.192;10.064;2023-06-24T00:53:52;17.00;85.30
12164;DHT22;6145;50.192;10.064;2023-06-24T00:56:20;17.00;85.30
12164;DHT22;6145;50.192;10.064;2023-06-24T00:58:48;17.00;85.30
12164;DHT22;6145;50.192;10.064;2023-06-24T01:01:16;17.00;85.20
12164;DHT22;6145;50.192;10.064;2023-06-24T01:03:43;16.90;85.20
12164;DHT22;6145;50.192;10.064;2023-06-24T01:06:13;16.90;85.30
12164;DHT22;6145;50.192;10.064;2023-06-24T01:08:41;16.90;85.60
12164;DHT22;6145;50.192;10.064;2023-06-24T01:11:08;16.80;85.60
12164;DHT22;6145;50.192;10.064;2023-06-24T01:13:35;16.80;85.60
12164;DHT22;6145;50.192;10.064;2023-06-24T01:16:09;16.90;85.50
12164;DHT22;6145;50.192;10.064;2023-06-24T01:18:43;16.80;85.50
12164;DHT22;6145;50.192;10.064;2023-06-24T01:21:25;16.70;85.60
12164;DHT22;6145;50.192;10.064;2023-06-24T01:24:15;16.80;85.60
12164;DHT22;6145;50.192;10.064;2023-06-24T01:30:13;16.70;85.50
12164;DHT22;6145;50.192;10.064;2023-06-24T01:32:49;16.60;85.40
12164;DHT22;6145;50.192;10.064;2023-06-24T01:35:21;16.60;85.40
12164;DHT22;6145;50.192;10.064;2023-06-24T01:37:51;16.60;85.60
12164;DHT22;6145;50.192;10.064;2023-06-24T01:40:25;17.30;86.00
12164;DHT22;6145;50.192;10.064;2023-06-24T01:42:52;16.60;85.90
12164;DHT22;6145;50.192;10.064;2023-06-24T01:45:23;16.50;85.90
12164;DHT22;6145;50.192;10.064;2023-06-24T01:47:57;16.40;85.70
12164;DHT22;6145;50.192;10.064;2023-06-24T01:50:27;16.40;85.80
12164;DHT22;6145;50.192;10.064;2023-06-24T01:52:55;16.40;85.70
12164;DHT22;6145;50.192;10.064;2023-06-24T01:55:24;15.70;85.40
12164;DHT22;6145;50.192;10.064;2023-06-24T01:57:51;16.40;86.00
12164;DHT22;6145;50.192;10.064;2023-06-24T02:00:20;16.30;86.00
12164;DHT22;6145;50.192;10.064;2023-06-24T02:02:51;16.30;85.90
12164;DHT22;6145;50.192;10.064;2023-06-24T02:05:18;16.30;85.90
12164;DHT22;6145;50.192;10.064;2023-06-24T02:07:48;16.30;86.10
12164;DHT22;6145;50.192;10.064;2023-06-24T02:10:17;16.60;86.40
12164;DHT22;6145;50.192;10.064;2023-06-24T02:12:46;16.30;85.90
12164;DHT22;6145;50.192;10.064;2023-06-24T02:15:15;16.20;85.70
12164;DHT22;6145;50.192;10.064;2023-06-24T02:17:43;16.20;85.70
12164;DHT22;6145;50.192;10.064;2023-06-24T02:20:14;16.20;85.60
12164;DHT22;6145;50.192;10.064;2023-06-24T02:22:41;16.20;85.90
12164;DHT22;6145;50.192;10.064;2023-06-24T02:25:09;16.10;86.00
12164;DHT22;6145;50.192;10.064;2023-06-24T02:27:37;16.10;85.80
12164;DHT22;6145;50.192;10.064;2023-06-24T02:30:05;16.10;86.10
12164;DHT22;6145;50.192;10.064;2023-06-24T02:32:35;16.10;85.90
12164;DHT22;6145;50.192;10.064;2023-06-24T02:35:04;16.00;85.70
12164;DHT22;6145;50.192;10.064;2023-06-24T02:37:32;16.00;85.70
12164;DHT22;6145;50.192;10.064;2023-06-24T02:39:59;16.00;85.70
12164;DHT22;6145;50.192;10.064;2023-06-24T02:42:28;16.00;85.70
12164;DHT22;6145;50.192;10.064;2023-06-24T02:44:54;15.90;85.60
12164;DHT22;6145;50.192;10.064;2023-06-24T02:47:21;15.90;85.60
12164;DHT22;6145;50.192;10.064;2023-06-24T02:49:49;16.30;86.00
12164;DHT22;6145;50.192;10.064;2023-06-24T02:52:16;15.90;85.70
12164;DHT22;6145;50.192;10.064;2023-06-24T02:54:45;15.90;85.80
12164;DHT22;6145;50.192;10.064;2023-06-24T02:57:12;15.80;85.90
12164;DHT22;6145;50.192;10.064;2023-06-24T02:59:41;15.80;85.90
12164;DHT22;6145;50.192;10.064;2023-06-24T03:02:08;15.80;85.90
12164;DHT22;6145;50.192;10.064;2023-06-24T03:04:35;15.80;86.00
12164;DHT22;6145;50.192;10.064;2023-06-24T03:07:03;15.80;86.20
12164;DHT22;6145;50.192;10.064;2023-06-24T03:09:34;15.70;86.30
12164;DHT22;6145;50.192;10.064;2023-06-24T03:12:02;15.70;86.80
12164;DHT22;6145;50.192;10.064;2023-06-24T03:14:29;15.60;87.20
12164;DHT22;6145;50.192;10.064;2023-06-24T03:16:56;15.60;87.60
12164;DHT22;6145;50.192;10.064;2023-06-24T03:19:23;15.80;87.80
12164;DHT22;6145;50.192;10.064;2023-06-24T03:21:50;15.60;87.70
12164;DHT22;6145;50.192;10.064;2023-06-24T03:24:17;15.60;87.50
12164;DHT22;6145;50.192;10.064;2023-06-24T03:26:44;15.70;87.60
12164;DHT22;6145;50.192;10.064;2023-06-24T03:29:12;15.70;87.60
12164;DHT22;6145;50.192;10.064;2023-06-24T03:31:39;15.70;87.70
12164;DHT22;6145;50.192;10.064;2023-06-24T03:34:09;15.70;87.60
12164;DHT22;6145;50.192;10.064;2023-06-24T03:36:36;15.60;87.60
12164;DHT22;6145;50.192;10.064;2023-06-24T03:39:04;15.70;87.60
12164;DHT22;6145;50.192;10.064;2023-06-24T03:41:31;15.70;87.60
12164;DHT22;6145;50.192;10.064;2023-06-24T03:43:58;15.60;87.60
12164;DHT22;6145;50.192;10.064;2023-06-24T03:46:26;15.70;88.10
12164;DHT22;6145;50.192;10.064;2023-06-24T03:48:58;15.70;88.20
12164;DHT22;6145;50.192;10.064;2023-06-24T03:51:25;15.70;88.20
12164;DHT22;6145;50.192;10.064;2023-06-24T03:53:52;15.80;88.10
12164;DHT22;6145;50.192;10.064;2023-06-24T03:56:19;15.70;88.40
12164;DHT22;6145;50.192;10.064;2023-06-24T03:58:45;15.70;88.40
12164;DHT22;6145;50.192;10.064;2023-06-24T04:01:12;15.70;88.60
12164;DHT22;6145;50.192;10.064;2023-06-24T04:03:40;15.90;89.00
12164;DHT22;6145;50.192;10.064;2023-06-24T04:06:07;15.70;89.10
12164;DHT22;6145;50.192;10.064;2023-06-24T04:08:34;15.70;89.40
12164;DHT22;6145;50.192;10.064;2023-06-24T04:11:05;15.80;89.20
12164;DHT22;6145;50.192;10.064;2023-06-24T04:13:33;15.70;89.10
12164;DHT22;6145;50.192;10.064;2023-06-24T04:16:00;15.70;89.00
12164;DHT22;6145;50.192;10.064;2023-06-24T04:18:27;15.80;89.10
12164;DHT22;6145;50.192;10.064;2023-06-24T04:20:55;15.80;89.30
12164;DHT22;6145;50.192;10.064;2023-06-24T04:23:23;15.80;89.50
12164;DHT22;6145;50.192;10.064;2023-06-24T04:25:49;15.90;89.90
12164;DHT22;6145;50.192;10.064;2023-06-24T04:28:16;15.80;89.80
12164;DHT22;6145;50.192;10.064;2023-06-24T04:30:43;15.80;89.50
12164;DHT22;6145;50.192;10.064;2023-06-24T04:33:09;15.80;89.40
12164;DHT22;6145;50.192;10.064;2023-06-24T04:35:36;15.90;89.80
12164;DHT22;6145;50.192;10.064;2023-06-24T04:38:04;15.90;89.80
12164;DHT22;6145;50.192;10.064;2023-06-24T04:40:31;15.90;90.00
12164;DHT22;6145;50.192;10.064;2023-06-24T04:42:58;17.30;90.70
12164;DHT22;6145;50.192;10.064;2023-06-24T04:45:25;15.90;90.00
12164;DHT22;6145;50.192;10.064;2023-06-24T04:47:52;15.90;90.00
12164;DHT22;6145;50.192;10.064;2023-06-24T04:50:19;15.90;90.00
12164;DHT22;6145;50.192;10.064;2023-06-24T04:52:50;15.90;90.10
12164;DHT22;6145;50.192;10.064;2023-06-24T04:55:22;15.20;89.80
12164;DHT22;6145;50.192;10.064;2023-06-24T04:57:49;15.90;90.00
12164;DHT22;6145;50.192;10.064;2023-06-24T05:00:16;16.00;90.10
12164;DHT22;6145;50.192;10.064;2023-06-24T05:02:49;16.00;90.10
12164;DHT22;6145;50.192;10.064;2023-06-24T05:05:17;16.00;90.30
12164;DHT22;6145;50.192;10.064;2023-06-24T05:07:45;16.00;90.20
12164;DHT22;6145;50.192;10.064;2023-06-24T05:10:15;16.00;90.20
12164;DHT22;6145;50.192;10.064;2023-06-24T05:12:44;16.20;90.60
12164;DHT22;6145;50.192;10.064;2023-06-24T05:15:10;16.10;90.60
12164;DHT22;6145;50.192;10.064;2023-06-24T05:17:37;16.10;90.30
12164;DHT22;6145;50.192;10.064;2023-06-24T05:20:05;16.10;90.60
12164;DHT22;6145;50.192;10.064;2023-06-24T05:22:32;16.10;90.90
12164;DHT22;6145;50.192;10.064;2023-06-24T05:24:58;18.10;91.60
12164;DHT22;6145;50.192;10.064;2023-06-24T05:27:25;16.10;90.80
12164;DHT22;6145;50.192;10.064;2023-06-24T05:29:53;17.70;91.70
12164;DHT22;6145;50.192;10.064;2023-06-24T05:32:20;16.30;91.10
12164;DHT22;6145;50.192;10.064;2023-06-24T05:34:47;16.10;91.00
12164;DHT22;6145;50.192;10.064;2023-06-24T05:37:14;16.10;91.20
12164;DHT22;6145;50.192;10.064;2023-06-24T05:39:40;16.20;91.50
12164;DHT22;6145;50.192;10.064;2023-06-24T05:42:07;16.20;91.70
12164;DHT22;6145;50.192;10.064;2023-06-24T05:44:34;16.30;91.90
12164;DHT22;6145;50.192;10.064;2023-06-24T05:47:02;16.40;91.90
12164;DHT22;6145;50.192;10.064;2023-06-24T05:49:29;16.40;92.00
12164;DHT22;6145;50.192;10.064;2023-06-24T05:51:56;16.50;92.00
12164;DHT22;6145;50.192;10.064;2023-06-24T05:54:23;16.60;91.90
12164;DHT22;6145;50.192;10.064;2023-06-24T05:56:50;16.60;91.80
12164;DHT22;6145;50.192;10.064;2023-06-24T05:59:17;17.00;91.60
12164;DHT22;6145;50.192;10.064;2023-06-24T06:01:43;16.70;91.30
12164;DHT22;6145;50.192;10.064;2023-06-24T06:04:11;16.70;91.40
12164;DHT22;6145;50.192;10.064;2023-06-24T06:06:38;17.00;92.10
12164;DHT22;6145;50.192;10.064;2023-06-24T06:09:05;17.10;92.60
12164;DHT22;6145;50.192;10.064;2023-06-24T06:11:32;17.30;93.70
12164;DHT22;6145;50.192;10.064;2023-06-24T06:13:59;17.50;93.60
12164;DHT22;6145;50.192;10.064;2023-06-24T06:16:25;17.80;93.90
12164;DHT22;6145;50.192;10.064;2023-06-24T06:18:53;18.00;93.90
12164;DHT22;6145;50.192;10.064;2023-06-24T06:21:22;18.30;94.40
12164;DHT22;6145;50.192;10.064;2023-06-24T06:24:22;18.70;94.10
12164;DHT22;6145;50.192;10.064;2023-06-24T06:26:49;19.40;94.10
12164;DHT22;6145;50.192;10.064;2023-06-24T06:29:16;19.50;93.50
12164;DHT22;6145;50.192;10.064;2023-06-24T06:31:43;19.90;93.10
12164;DHT22;6145;50.192;10.064;2023-06-24T06:34:10;20.40;91.80
12164;DHT22;6145;50.192;10.064;2023-06-24T06:36:38;20.80;91.60
12164;DHT22;6145;50.192;10.064;2023-06-24T06:39:05;21.10;91.30
12164;DHT22;6145;50.192;10.064;2023-06-24T06:41:31;21.40;89.30
12164;DHT22;6145;50.192;10.064;2023-06-24T06:43:58;21.80;88.80
12164;DHT22;6145;50.192;10.064;2023-06-24T06:46:25;22.00;87.70
12164;DHT22;6145;50.192;10.064;2023-06-24T06:48:52;22.00;86.30
12164;DHT22;6145;50.192;10.064;2023-06-24T06:51:18;22.30;85.40
12164;DHT22;6145;50.192;10.064;2023-06-24T06:53:47;22.40;85.60
12164;DHT22;6145;50.192;10.064;2023-06-24T06:56:18;22.90;84.30
12164;DHT22;6145;50.192;10.064;2023-06-24T06:58:44;23.20;82.90
12164;DHT22;6145;50.192;10.064;2023-06-24T07:01:11;23.30;80.80
12164;DHT22;6145;50.192;10.064;2023-06-24T07:03:39;23.40;81.00
12164;DHT22;6145;50.192;10.064;2023-06-24T07:06:06;23.70;78.90
12164;DHT22;6145;50.192;10.064;2023-06-24T07:08:33;22.90;77.50
12164;DHT22;6145;50.192;10.064;2023-06-24T07:11:02;24.00;79.00
12164;DHT22;6145;50.192;10.064;2023-06-24T07:13:29;24.10;79.00
12164;DHT22;6145;50.192;10.064;2023-06-24T07:15:56;24.20;77.30
12164;DHT22;6145;50.192;10.064;2023-06-24T07:18:23;24.30;76.30
12164;DHT22;6145;50.192;10.064;2023-06-24T07:20:49;24.40;75.10
12164;DHT22;6145;50.192;10.064;2023-06-24T07:23:16;24.50;75.10
12164;DHT22;6145;50.192;10.064;2023-06-24T07:25:43;24.80;76.40
12164;DHT22;6145;50.192;10.064;2023-06-24T07:28:11;24.80;74.20
12164;DHT22;6145;50.192;10.064;2023-06-24T07:30:38;24.90;74.90
12164;DHT22;6145;50.192;10.064;2023-06-24T07:33:05;25.10;75.50
12164;DHT22;6145;50.192;10.064;2023-06-24T07:35:33;25.10;73.50
12164;DHT22;6145;50.192;10.064;2023-06-24T07:38:00;25.20;74.60
12164;DHT22;6145;50.192;10.064;2023-06-24T07:40:27;25.10;74.90
12164;DHT22;6145;50.192;10.064;2023-06-24T07:42:54;25.20;74.30
12164;DHT22;6145;50.192;10.064;2023-06-24T07:45:22;25.60;73.00
12164;DHT22;6145;50.192;10.064;2023-06-24T07:47:49;25.90;73.50
12164;DHT22;6145;50.192;10.064;2023-06-24T07:50:16;25.80;68.80
12164;DHT22;6145;50.192;10.064;2023-06-24T07:52:42;25.90;66.10
12164;DHT22;6145;50.192;10.064;2023-06-24T07:55:09;25.90;66.40
12164;DHT22;6145;50.192;10.064;2023-06-24T07:57:36;26.10;67.00
12164;DHT22;6145;50.192;10.064;2023-06-24T08:00:03;26.20;65.40
12164;DHT22;6145;50.192;10.064;2023-06-24T08:02:36;26.30;64.90
12164;DHT22;6145;50.192;10.064;2023-06-24T08:05:03;26.60;65.30
12164;DHT22;6145;50.192;10.064;2023-06-24T08:07:30;26.70;63.60
12164;DHT22;6145;50.192;10.064;2023-06-24T08:09:57;26.80;59.10
12164;DHT22;6145;50.192;10.064;2023-06-24T08:12:24;26.80;57.90
12164;DHT22;6145;50.192;10.064;2023-06-24T08:14:51;26.80;59.80
12164;DHT22;6145;50.192;10.064;2023-06-24T08:17:18;27.00;59.80
12164;DHT22;6145;50.192;10.064;2023-06-24T08:19:46;27.10;60.80
12164;DHT22;6145;50.192;10.064;2023-06-24T08:22:13;27.30;60.10
12164;DHT22;6145;50.192;10.064;2023-06-24T08:24:40;27.40;58.80
12164;DHT22;6145;50.192;10.064;2023-06-24T08:27:06;27.40;59.40
12164;DHT22;6145;50.192;10.064;2023-06-24T08:29:34;27.60;60.90
12164;DHT22;6145;50.192;10.064;2023-06-24T08:32:01;27.60;56.60
12164;DHT22;6145;50.192;10.064;2023-06-24T08:34:28;27.70;55.30
12164;DHT22;6145;50.192;10.064;2023-06-24T08:36:56;27.60;54.90
12164;DHT22;6145;50.192;10.064;2023-06-24T08:39:29;27.50;54.60
12164;DHT22;6145;50.192;10.064;2023-06-24T08:41:59;27.50;56.60
12164;DHT22;6145;50.192;10.064;2023-06-24T08:44:26;27.60;57.10
12164;DHT22;6145;50.192;10.064;2023-06-24T08:46:52;27.80;54.30
12164;DHT22;6145;50.192;10.064;2023-06-24T08:49:27;27.80;56.80
12164;DHT22;6145;50.192;10.064;2023-06-24T08:52:00;27.90;54.50
12164;DHT22;6145;50.192;10.064;2023-06-24T08:54:29;27.80;56.60
12164;DHT22;6145;50.192;10.064;2023-06-24T08:56:57;27.90;57.20
12164;DHT22;6145;50.192;10.064;2023-06-24T08:59:26;28.10;55.70
12164;DHT22;6145;50.192;10.064;2023-06-24T09:01:52;28.20;55.40
12164;DHT22;6145;50.192;10.064;2023-06-24T09:04:19;28.10;54.80
12164;DHT22;6145;50.192;10.064;2023-06-24T09:06:46;28.20;55.70
12164;DHT22;6145;50.192;10.064;2023-06-24T09:09:21;28.20;57.00
12164;DHT22;6145;50.192;10.064;2023-06-24T09:11:51;28.60;56.30
12164;DHT22;6145;50.192;10.064;2023-06-24T09:14:19;28.60;55.00
12164;DHT22;6145;50.192;10.064;2023-06-24T09:16:51;29.20;54.20
12164;DHT22;6145;50.192;10.064;2023-06-24T09:19:20;28.80;53.20
12164;DHT22;6145;50.192;10.064;2023-06-24T09:21:47;28.60;54.60
12164;DHT22;6145;50.192;10.064;2023-06-24T09:24:14;28.80;54.50
12164;DHT22;6145;50.192;10.064;2023-06-24T09:26:43;28.90;56.00
12164;DHT22;6145;50.192;10.064;2023-06-24T09:29:12;29.20;56.00
12164;DHT22;6145;50.192;10.064;2023-06-24T09:31:47;29.30;52.70
12164;DHT22;6145;50.192;10.064;2023-06-24T09:34:15;29.40;53.50
12164;DHT22;6145;50.192;10.064;2023-06-24T09:36:51;29.50;53.30
12164;DHT22;6145;50.192;10.064;2023-06-24T09:39:18;29.60;53.20
12164;DHT22;6145;50.192;10.064;2023-06-24T09:41:49;29.60;52.00
12164;DHT22;6145;50.192;10.064;2023-06-24T09:44:17;29.70;52.10
12164;DHT22;6145;50.192;10.064;2023-06-24T09:46:45;29.70;52.30
12164;DHT22;6145;50.192;10.064;2023-06-24T09:49:12;29.70;51.70
12164;DHT22;6145;50.192;10.064;2023-06-24T09:51:40;29.60;52.00
12164;DHT22;6145;50.192;10.064;2023-06-24T09:54:10;29.50;52.70
12164;DHT22;6145;50.192;10.064;2023-06-24T09:56:40;29.60;51.00
12164;DHT22;6145;50.192;10.064;2023-06-24T09:59:12;29.60;52.20
12164;DHT22;6145;50.192;10.064;2023-06-24T10:01:40;29.70;52.70
12164;DHT22;6145;50.192;10.064;2023-06-24T10:04:08;29.60;49.60
12164;DHT22;6145;50.192;10.064;2023-06-24T10:06:35;29.50;52.10
12164;DHT22;6145;50.192;10.064;2023-06-24T10:09:02;29.30;51.10
12164;DHT22;6145;50.192;10.064;2023-06-24T10:11:29;29.20;52.30
12164;DHT22;6145;50.192;10.064;2023-06-24T10:13:56;29.20;53.70
12164;DHT22;6145;50.192;10.064;2023-06-24T10:16:25;29.30;53.90
12164;DHT22;6145;50.192;10.064;2023-06-24T10:18:52;29.60;53.70
12164;DHT22;6145;50.192;10.064;2023-06-24T10:21:44;29.70;52.70
12164;DHT22;6145;50.192;10.064;2023-06-24T10:24:13;30.10;52.50
12164;DHT22;6145;50.192;10.064;2023-06-24T10:26:54;30.00;51.70
12164;DHT22;6145;50.192;10.064;2023-06-24T10:29:30;30.10;50.00
12164;DHT22;6145;50.192;10.064;2023-06-24T10:32:02;30.20;50.70
12164;DHT22;6145;50.192;10.064;2023-06-24T10:34:38;30.30;51.70
12164;DHT22;6145;50.192;10.064;2023-06-24T10:37:09;30.10;52.40
12164;DHT22;6145;50.192;10.064;2023-06-24T10:39:44;30.40;52.50
12164;DHT22;6145;50.192;10.064;2023-06-24T10:42:37;30.40;53.00
12164;DHT22;6145;50.192;10.064;2023-06-24T10:45:18;30.50;52.90
12164;DHT22;6145;50.192;10.064;2023-06-24T10:47:48;30.60;52.60
12164;DHT22;6145;50.192;10.064;2023-06-24T10:50:18;30.80;52.90
12164;DHT22;6145;50.192;10.064;2023-06-24T10:52:46;30.70;49.50
12164;DHT22;6145;50.192;10.064;2023-06-24T10:55:15;30.70;49.10
12164;DHT22;6145;50.192;10.064;2023-06-24T10:57:42;30.90;48.30
12164;DHT22;6145;50.192;10.064;2023-06-24T11:00:10;30.50;47.90
12164;DHT22;6145;50.192;10.064;2023-06-24T11:02:37;30.40;47.50
12164;DHT22;6145;50.192;10.064;2023-06-24T11:05:06;30.10;47.00
12164;DHT22;6145;50.192;10.064;2023-06-24T11:07:34;29.90;47.50
12164;DHT22;6145;50.192;10.064;2023-06-24T11:10:06;29.80;47.80
12164;DHT22;6145;50.192;10.064;2023-06-24T11:12:34;29.60;47.90
12164;DHT22;6145;50.192;10.064;2023-06-24T11:15:03;29.30;49.20
12164;DHT22;6145;50.192;10.064;2023-06-24T11:17:30;29.40;50.00
12164;DHT22;6145;50.192;10.064;2023-06-24T11:19:58;29.40;48.80
12164;DHT22;6145;50.192;10.064;2023-06-24T11:22:26;29.40;50.20
12164;DHT22;6145;50.192;10.064;2023-06-24T11:24:54;29.60;48.40
12164;DHT22;6145;50.192;10.064;2023-06-24T11:27:25;29.60;50.20
12164;DHT22;6145;50.192;10.064;2023-06-24T11:29:53;29.80;50.00
12164;DHT22;6145;50.192;10.064;2023-06-24T11:32:20;29.90;49.00
12164;DHT22;6145;50.192;10.064;2023-06-24T11:34:48;30.00;50.50
12164;DHT22;6145;50.192;10.064;2023-06-24T11:37:16;30.20;51.10
12164;DHT22;6145;50.192;10.064;2023-06-24T11:39:45;30.40;48.50
12164;DHT22;6145;50.192;10.064;2023-06-24T11:42:32;30.40;49.60
12164;DHT22;6145;50.192;10.064;2023-06-24T11:45:01;30.70;51.00
12164;DHT22;6145;50.192;10.064;2023-06-24T11:47:31;30.60;51.80
12164;DHT22;6145;50.192;10.064;2023-06-24T11:49:58;30.80;50.50
12164;DHT22;6145;50.192;10.064;2023-06-24T11:52:33;31.10;50.90
12164;DHT22;6145;50.192;10.064;2023-06-24T11:55:11;31.30;51.30
12164;DHT22;6145;50.192;10.064;2023-06-24T11:57:51;31.10;48.20
12164;DHT22;6145;50.192;10.064;2023-06-24T12:00:22;31.20;47.70
12164;DHT22;6145;50.192;10.064;2023-06-24T12:02:53;31.10;46.20
12164;DHT22;6145;50.192;10.064;2023-06-24T12:05:24;31.10;44.70
12164;DHT22;6145;50.192;10.064;2023-06-24T12:07:58;31.00;44.40
12164;DHT22;6145;50.192;10.064;2023-06-24T12:10:27;30.90;46.70
12164;DHT22;6145;50.192;10.064;2023-06-24T12:12:56;30.80;45.60
12164;DHT22;6145;50.192;10.064;2023-06-24T12:15:23;30.90;46.40
12164;DHT22;6145;50.192;10.064;2023-06-24T12:17:50;31.20;47.30
12164;DHT22;6145;50.192;10.064;2023-06-24T12:20:17;31.40;46.50
12164;DHT22;6145;50.192;10.064;2023-06-24T12:22:44;31.60;44.10
12164;DHT22;6145;50.192;10.064;2023-06-24T12:25:11;31.60;41.90
12164;DHT22;6145;50.192;10.064;2023-06-24T12:27:39;31.60;43.40
12164;DHT22;6145;50.192;10.064;2023-06-24T12:30:07;31.60;41.90
12164;DHT22;6145;50.192;10.064;2023-06-24T12:32:34;31.60;40.90
12164;DHT22;6145;50.192;10.064;2023-06-24T12:35:01;31.50;41.50
12164;DHT22;6145;50.192;10.064;2023-06-24T12:37:30;31.50;43.10
12164;DHT22;6145;50.192;10.064;2023-06-24T12:39:57;31.70;45.30
12164;DHT22;6145;50.192;10.064;2023-06-24T12:42:25;31.90;45.60
12164;DHT22;6145;50.192;10.064;2023-06-24T12:44:53;31.90;44.90
12164;DHT22;6145;50.192;10.064;2023-06-24T12:47:20;32.10;44.20
12164;DHT22;6145;50.192;10.064;2023-06-24T12:49:48;32.20;42.20
12164;DHT22;6145;50.192;10.064;2023-06-24T12:52:15;32.10;41.00
12164;DHT22;6145;50.192;10.064;2023-06-24T12:54:42;31.90;42.20
12164;DHT22;6145;50.192;10.064;2023-06-24T12:57:09;32.10;44.90
12164;DHT22;6145;50.192;10.064;2023-06-24T12:59:36;32.10;45.50
12164;DHT22;6145;50.192;10.064;2023-06-24T13:02:05;32.20;45.70
12164;DHT22;6145;50.192;10.064;2023-06-24T13:04:32;32.40;44.30
12164;DHT22;6145;50.192;10.064;2023-06-24T13:06:59;32.50;43.00
12164;DHT22;6145;50.192;10.064;2023-06-24T13:09:26;32.60;41.30
12164;DHT22;6145;50.192;10.064;2023-06-24T13:11:53;32.60;43.60
12164;DHT22;6145;50.192;10.064;2023-06-24T13:14:19;32.70;39.90
12164;DHT22;6145;50.192;10.064;2023-06-24T13:16:46;32.60;39.90
12164;DHT22;6145;50.192;10.064;2023-06-24T13:19:14;32.60;40.60
12164;DHT22;6145;50.192;10.064;2023-06-24T13:21:42;32.60;43.30
12164;DHT22;6145;50.192;10.064;2023-06-24T13:24:09;32.60;43.30
12164;DHT22;6145;50.192;10.064;2023-06-24T13:26:38;32.80;42.60
12164;DHT22;6145;50.192;10.064;2023-06-24T13:29:04;33.00;43.60
12164;DHT22;6145;50.192;10.064;2023-06-24T13:31:32;33.20;43.00
12164;DHT22;6145;50.192;10.064;2023-06-24T13:33:59;33.30;43.10
12164;DHT22;6145;50.192;10.064;2023-06-24T13:36:33;33.40;41.00
12164;DHT22;6145;50.192;10.064;2023-06-24T13:39:01;33.40;41.20
12164;DHT22;6145;50.192;10.064;2023-06-24T13:41:28;33.40;38.80
12164;DHT22;6145;50.192;10.064;2023-06-24T13:43:58;33.10;41.00
12164;DHT22;6145;50.192;10.064;2023-06-24T13:46:25;33.30;41.90
12164;DHT22;6145;50.192;10.064;2023-06-24T13:48:59;33.30;41.60
12164;DHT22;6145;50.192;10.064;2023-06-24T13:51:26;33.30;39.60
12164;DHT22;6145;50.192;10.064;2023-06-24T13:53:54;33.30;41.80
12164;DHT22;6145;50.192;10.064;2023-06-24T13:56:22;33.30;39.60
12164;DHT22;6145;50.192;10.064;2023-06-24T13:58:50;33.30;39.40
12164;DHT22;6145;50.192;10.064;2023-06-24T14:01:17;33.40;42.20
12164;DHT22;6145;50.192;10.064;2023-06-24T14:03:44;33.40;43.00
12164;DHT22;6145;50.192;10.064;2023-06-24T14:06:13;33.40;42.70
12164;DHT22;6145;50.192;10.064;2023-06-24T14:08:40;33.40;39.60
12164;DHT22;6145;50.192;10.064;2023-06-24T14:11:09;33.40;41.10
12164;DHT22;6145;50.192;10.064;2023-06-24T14:13:37;33.40;38.10
12164;DHT22;6145;50.192;10.064;2023-06-24T14:16:04;33.30;38.90
12164;DHT22;6145;50.192;10.064;2023-06-24T14:18:31;33.20;37.20
12164;DHT22;6145;50.192;10.064;2023-06-24T14:21:00;33.10;36.30
12164;DHT22;6145;50.192;10.064;2023-06-24T14:23:28;33.00;39.60
12164;DHT22;6145;50.192;10.064;2023-06-24T14:25:55;33.00;41.10
12164;DHT22;6145;50.192;10.064;2023-06-24T14:28:23;32.90;39.40
12164;DHT22;6145;50.192;10.064;2023-06-24T14:30:50;32.90;41.20
12164;DHT22;6145;50.192;10.064;2023-06-24T14:33:17;32.80;40.80
12164;DHT22;6145;50.192;10.064;2023-06-24T14:35:44;32.80;38.50
12164;DHT22;6145;50.192;10.064;2023-06-24T14:38:11;32.90;37.40
12164;DHT22;6145;50.192;10.064;2023-06-24T14:40:38;32.90;39.10
12164;DHT22;6145;50.192;10.064;2023-06-24T14:43:04;33.10;39.20
12164;DHT22;6145;50.192;10.064;2023-06-24T14:45:32;33.10;38.80
12164;DHT22;6145;50.192;10.064;2023-06-24T14:47:59;33.10;39.00
12164;DHT22;6145;50.192;10.064;2023-06-24T14:50:26;33.30;39.10
12164;DHT22;6145;50.192;10.064;2023-06-24T14:52:53;33.30;39.80
12164;DHT22;6145;50.192;10.064;2023-06-24T14:55:20;33.40;39.10
12164;DHT22;6145;50.192;10.064;2023-06-24T14:57:46;33.50;40.90
12164;DHT22;6145;50.192;10.064;2023-06-24T15:00:14;33.60;40.70
12164;DHT22;6145;50.192;10.064;2023-06-24T15:02:42;33.60;37.80
12164;DHT22;6145;50.192;10.064;2023-06-24T15:05:09;33.60;40.70
12164;DHT22;6145;50.192;10.064;2023-06-24T15:07:36;33.50;39.30
12164;DHT22;6145;50.192;10.064;2023-06-24T15:10:04;33.30;39.50
12164;DHT22;6145;50.192;10.064;2023-06-24T15:12:31;33.50;40.70
12164;DHT22;6145;50.192;10.064;2023-06-24T15:14:59;33.60;39.70
12164;DHT22;6145;50.192;10.064;2023-06-24T15:17:25;33.50;38.00
12164;DHT22;6145;50.192;10.064;2023-06-24T15:19:53;33.50;39.40
12164;DHT22;6145;50.192;10.064;2023-06-24T15:22:20;33.40;38.20
12164;DHT22;6145;50.192;10.064;2023-06-24T15:24:48;33.30;39.30
12164;DHT22;6145;50.192;10.064;2023-06-24T15:27:15;33.30;41.10
12164;DHT22;6145;50.192;10.064;2023-06-24T15:29:42;33.20;41.00
12164;DHT22;6145;50.192;10.064;2023-06-24T15:32:09;33.30;37.10
12164;DHT22;6145;50.192;10.064;2023-06-24T15:34:36;32.80;37.20
12164;DHT22;6145;50.192;10.064;2023-06-24T15:37:04;32.70;37.30
12164;DHT22;6145;50.192;10.064;2023-06-24T15:39:31;32.50;40.20
12164;DHT22;6145;50.192;10.064;2023-06-24T15:41:58;32.30;39.80